createdAt,value
2023-05-17T00:00:58.478Z,28.44
2023-05-17T00:03:25.275Z,28.67
2023-05-17T00:05:52.648Z,28.69
2023-05-17T00:08:19.314Z,28.63
2023-05-17T00:10:46.040Z,28.55
2023-05-17T00:13:12.894Z,28.76
2023-05-17T00:15:39.604Z,29.36
2023-05-17T00:18:06.312Z,29.27
2023-05-17T00:20:34.114Z,28.60
2023-05-17T00:23:00.736Z,28.32
2023-05-17T00:25:27.739Z,28.16
2023-05-17T00:27:55.090Z,28.09
2023-05-17T00:30:21.873Z,28.63
2023-05-17T00:32:49.142Z,28.20
2023-05-17T00:35:15.985Z,28.45
2023-05-17T00:37:47.078Z,28.72
2023-05-17T00:40:15.034Z,28.52
2023-05-17T00:42:42.059Z,28.95
2023-05-17T00:45:10.167Z,28.74
2023-05-17T00:47:37.476Z,28.68
2023-05-17T00:50:05.647Z,28.98
2023-05-17T00:52:32.571Z,28.74
2023-05-17T00:54:59.286Z,29.32
2023-05-17T00:57:26.397Z,29.15
2023-05-17T00:59:54.809Z,28.93
2023-05-17T01:02:21.893Z,29.10
2023-05-17T01:04:49.472Z,28.68
2023-05-17T01:07:17.375Z,29.03
2023-05-17T01:09:47.114Z,29.08
2023-05-17T01:12:13.973Z,29.05
2023-05-17T01:14:53.750Z,28.36
2023-05-17T01:17:25.032Z,28.36
2023-05-17T01:20:05.948Z,29.30
2023-05-17T01:22:39.641Z,29.44
2023-05-17T01:25:17.273Z,29.35
2023-05-17T01:27:44.970Z,29.03
2023-05-17T01:30:12.970Z,28.92
2023-05-17T01:32:41.361Z,29.16
2023-05-17T01:35:10.122Z,29.43
2023-05-17T01:37:38.230Z,29.31
2023-05-17T01:40:06.691Z,29.42
2023-05-17T01:42:33.513Z,29.26
2023-05-17T01:45:00.658Z,28.91
2023-05-17T01:47:36.222Z,28.86
2023-05-17T01:50:03.203Z,29.04
2023-05-17T01:52:35.503Z,29.30
2023-05-17T01:55:05.573Z,28.88
2023-05-17T01:57:35.555Z,28.94
2023-05-17T02:00:05.995Z,29.03
2023-05-17T02:02:42.265Z,29.06
2023-05-17T02:05:09.430Z,28.71
2023-05-17T02:07:41.092Z,28.57
2023-05-17T02:10:08.833Z,28.36
2023-05-17T02:12:36.380Z,28.90
2023-05-17T02:15:04.350Z,28.97
2023-05-17T02:17:32.367Z,28.72
2023-05-17T02:19:59.094Z,28.86
2023-05-17T02:22:25.677Z,28.95
2023-05-17T02:24:52.379Z,28.95
2023-05-17T02:27:19.283Z,29.24
2023-05-17T02:29:46.088Z,28.91
2023-05-17T02:32:12.989Z,28.15
2023-05-17T02:34:39.637Z,28.48
2023-05-17T02:37:06.495Z,28.48
2023-05-17T02:39:33.235Z,28.47
2023-05-17T02:42:00.025Z,28.52
2023-05-17T02:44:26.742Z,28.58
2023-05-17T02:46:53.505Z,27.95
2023-05-17T02:49:20.161Z,28.17
2023-05-17T02:51:47.290Z,28.49
2023-05-17T02:54:14.023Z,29.13
2023-05-17T02:56:40.853Z,29.38
2023-05-17T02:59:07.792Z,29.25
2023-05-17T03:01:36.080Z,29.19
2023-05-17T03:04:03.718Z,29.52
2023-05-17T03:06:31.199Z,29.32
2023-05-17T03:08:58.664Z,29.22
2023-05-17T03:11:26.251Z,29.04
2023-05-17T03:13:55.004Z,28.78
2023-05-17T03:16:25.882Z,29.09
2023-05-17T03:18:52.996Z,29.12
2023-05-17T03:21:20.889Z,28.84
2023-05-17T03:23:48.325Z,29.06
2023-05-17T03:26:15.668Z,29.50
2023-05-17T03:28:47.117Z,29.49
2023-05-17T03:31:14.296Z,29.59
2023-05-17T03:33:41.695Z,29.66
2023-05-17T03:36:08.768Z,29.67
2023-05-17T03:38:35.649Z,29.68
2023-05-17T03:41:03.102Z,29.69
2023-05-17T03:43:30.199Z,29.83
2023-05-17T03:45:58.180Z,29.64
2023-05-17T03:48:25.058Z,29.69
2023-05-17T03:50:52.693Z,29.67
2023-05-17T03:53:19.295Z,29.29
2023-05-17T03:55:46.050Z,29.38
2023-05-17T03:58:13.059Z,29.40
2023-05-17T04:00:40.847Z,29.37
2023-05-17T04:03:10.216Z,29.34
2023-05-17T04:05:37.620Z,29.12
2023-05-17T04:08:04.753Z,29.17
2023-05-17T04:10:31.701Z,29.44
2023-05-17T04:12:58.358Z,29.71
2023-05-17T04:15:25.868Z,29.65
2023-05-17T04:17:54.928Z,29.61
2023-05-17T04:20:21.682Z,29.16
2023-05-17T04:22:48.717Z,29.92
2023-05-17T04:25:16.521Z,30.19
2023-05-17T04:27:45.960Z,30.34
2023-05-17T04:30:14.194Z,29.98
2023-05-17T04:32:43.274Z,30.40
2023-05-17T04:35:11.296Z,30.49
2023-05-17T04:37:39.768Z,30.10
2023-05-17T04:40:14.235Z,29.97
2023-05-17T04:42:42.099Z,29.98
2023-05-17T04:45:09.776Z,29.90
2023-05-17T04:47:37.176Z,30.25
2023-05-17T04:50:04.609Z,30.28
2023-05-17T04:54:32.548Z,26.49
2023-05-17T04:57:00.702Z,27.88
2023-05-17T04:59:50.354Z,28.52
2023-05-17T05:02:17.624Z,28.96
2023-05-17T05:04:44.756Z,29.19
2023-05-17T05:07:12.270Z,29.22
2023-05-17T05:09:39.581Z,29.44
2023-05-17T05:12:07.035Z,29.75
2023-05-17T05:14:34.938Z,30.06
2023-05-17T05:17:02.096Z,29.66
2023-05-17T05:19:29.691Z,30.03
2023-05-17T05:21:57.789Z,29.79
2023-05-17T05:24:24.537Z,29.69
2023-05-17T05:26:51.477Z,30.02
2023-05-17T05:29:19.233Z,29.69
2023-05-17T05:31:46.450Z,29.59
2023-05-17T05:34:14.021Z,29.94
2023-05-17T05:36:41.504Z,29.99
2023-05-17T05:39:09.936Z,30.04
2023-05-17T05:41:37.600Z,30.08
2023-05-17T05:44:04.620Z,30.54
2023-05-17T05:46:31.420Z,30.25
2023-05-17T05:48:58.331Z,30.75
2023-05-17T05:51:25.795Z,30.90
2023-05-17T05:53:52.740Z,30.88
2023-05-17T05:56:22.178Z,31.26
2023-05-17T05:58:50.571Z,31.19
2023-05-17T06:01:17.798Z,31.02
2023-05-17T06:03:44.598Z,31.06
2023-05-17T06:06:11.520Z,31.00
2023-05-17T06:08:38.377Z,31.11
2023-05-17T06:11:05.230Z,31.11
2023-05-17T06:13:32.000Z,31.16
2023-05-17T06:15:59.730Z,31.44
2023-05-17T06:18:26.778Z,31.86
2023-05-17T06:20:53.625Z,32.44
2023-05-17T06:23:20.546Z,32.32
2023-05-17T06:25:47.330Z,32.42
2023-05-17T06:28:14.094Z,32.52
2023-05-17T06:30:41.178Z,32.43
2023-05-17T06:33:08.717Z,32.60
2023-05-17T06:35:47.889Z,32.63
2023-05-17T06:38:23.415Z,32.42
2023-05-17T06:40:57.481Z,32.36
2023-05-17T06:43:25.634Z,32.79
2023-05-17T06:45:52.853Z,33.02
2023-05-17T06:48:19.847Z,32.72
2023-05-17T06:50:46.887Z,32.37
2023-05-17T06:53:13.884Z,32.93
2023-05-17T06:55:41.542Z,34.18
2023-05-17T06:58:08.377Z,34.73
2023-05-17T07:00:39.142Z,34.83
2023-05-17T07:03:06.069Z,35.21
2023-05-17T07:05:33.312Z,35.72
2023-05-17T07:08:00.761Z,35.79
2023-05-17T07:10:27.685Z,36.17
2023-05-17T07:12:54.529Z,36.61
2023-05-17T07:15:21.390Z,36.75
2023-05-17T07:17:48.271Z,36.66
2023-05-17T07:20:15.559Z,36.79
2023-05-17T07:22:42.500Z,36.83
2023-05-17T07:25:10.478Z,36.91
2023-05-17T07:27:37.312Z,36.92
2023-05-17T07:30:04.503Z,37.41
2023-05-17T07:32:31.360Z,37.60
2023-05-17T07:34:58.276Z,37.66
2023-05-17T07:37:25.075Z,37.94
2023-05-17T07:39:52.097Z,37.63
2023-05-17T07:42:18.907Z,37.43
2023-05-17T07:44:49.087Z,37.47
2023-05-17T07:47:17.749Z,37.43
2023-05-17T07:49:45.015Z,37.39
2023-05-17T07:52:11.888Z,37.38
2023-05-17T07:54:38.819Z,37.51
2023-05-17T07:57:05.709Z,37.65
2023-05-17T07:59:32.471Z,37.51
2023-05-17T08:01:59.255Z,37.64
2023-05-17T08:04:26.287Z,37.59
2023-05-17T08:06:55.561Z,37.52
2023-05-17T08:09:22.369Z,37.04
2023-05-17T08:11:49.249Z,36.60
2023-05-17T08:14:16.439Z,36.49
2023-05-17T08:16:43.973Z,36.40
2023-05-17T08:19:13.076Z,36.58
2023-05-17T08:21:41.072Z,36.43
2023-05-17T08:24:08.355Z,36.62
2023-05-17T08:26:35.178Z,36.32
2023-05-17T08:29:02.701Z,36.14
2023-05-17T08:31:29.952Z,36.38
2023-05-17T08:33:56.885Z,36.44
2023-05-17T08:36:23.834Z,36.54
2023-05-17T08:38:51.905Z,36.64
2023-05-17T08:41:19.570Z,36.72
2023-05-17T08:43:47.307Z,36.84
2023-05-17T08:46:14.085Z,37.14
2023-05-17T08:48:42.106Z,37.36
2023-05-17T08:51:12.262Z,37.23
2023-05-17T08:53:39.067Z,37.37
2023-05-17T08:56:07.132Z,37.28
2023-05-17T08:58:48.056Z,37.43
2023-05-17T09:01:18.997Z,37.28
2023-05-17T09:03:54.749Z,37.48
2023-05-17T09:06:22.293Z,37.60
2023-05-17T09:08:53.296Z,36.94
2023-05-17T09:11:27.966Z,36.99
2023-05-17T09:14:01.524Z,37.11
2023-05-17T09:16:29.668Z,37.28
2023-05-17T09:18:57.526Z,37.82
2023-05-17T09:21:25.148Z,38.03
2023-05-17T09:24:04.710Z,38.33
2023-05-17T09:26:39.858Z,38.33
2023-05-17T09:29:14.224Z,38.27
2023-05-17T09:31:41.486Z,37.82
2023-05-17T09:34:08.772Z,37.12
2023-05-17T09:36:37.805Z,37.53
2023-05-17T09:39:06.344Z,37.96
2023-05-17T09:41:34.101Z,37.91
2023-05-17T09:44:01.599Z,37.79
2023-05-17T09:46:29.117Z,37.92
2023-05-17T09:48:56.931Z,37.90
2023-05-17T09:51:33.950Z,37.54
2023-05-17T09:54:00.810Z,37.89
2023-05-17T09:56:30.964Z,38.57
2023-05-17T09:59:01.571Z,38.62
2023-05-17T10:01:29.360Z,38.33
2023-05-17T10:03:59.658Z,38.64
2023-05-17T10:06:38.975Z,38.73
2023-05-17T10:09:16.036Z,38.64
2023-05-17T10:11:46.848Z,38.85
2023-05-17T10:14:22.989Z,38.63
2023-05-17T10:16:50.987Z,38.34
2023-05-17T10:19:20.252Z,38.10
2023-05-17T10:21:51.060Z,37.35
2023-05-17T10:24:17.905Z,36.95
2023-05-17T10:26:44.670Z,37.46
2023-05-17T10:29:11.751Z,37.75
2023-05-17T10:31:38.585Z,38.00
2023-05-17T10:34:06.521Z,38.45
2023-05-17T10:36:33.881Z,38.22
2023-05-17T10:39:00.889Z,38.31
2023-05-17T10:41:30.503Z,38.57
2023-05-17T10:43:57.892Z,38.60
2023-05-17T10:46:24.971Z,38.68
2023-05-17T10:48:52.656Z,38.23
2023-05-17T10:51:37.795Z,38.00
2023-05-17T10:54:05.414Z,38.23
2023-05-17T10:56:32.858Z,37.79
2023-05-17T10:59:24.306Z,37.77
2023-05-17T11:02:04.805Z,37.96
2023-05-17T11:04:38.793Z,38.28
2023-05-17T11:07:29.311Z,38.11
2023-05-17T11:10:06.336Z,37.94
2023-05-17T11:12:43.219Z,37.64
2023-05-17T11:15:14.294Z,37.20
2023-05-17T11:17:44.631Z,36.74
2023-05-17T11:20:16.454Z,36.55
2023-05-17T11:23:16.502Z,36.91
2023-05-17T11:25:43.407Z,37.48
2023-05-17T11:28:18.433Z,37.62
2023-05-17T11:30:51.488Z,37.44
2023-05-17T11:33:33.294Z,37.23
2023-05-17T11:36:05.590Z,37.55
2023-05-17T11:38:33.134Z,37.79
2023-05-17T11:41:26.592Z,37.81
2023-05-17T11:43:53.674Z,38.14
2023-05-17T11:46:22.622Z,38.22
2023-05-17T11:48:53.941Z,38.46
2023-05-17T11:51:23.875Z,38.37
2023-05-17T11:53:55.336Z,38.13
2023-05-17T11:56:41.885Z,38.06
2023-05-17T11:59:11.292Z,38.52
2023-05-17T12:01:51.133Z,38.63
2023-05-17T12:04:27.709Z,38.74
2023-05-17T12:06:54.873Z,38.73
2023-05-17T12:09:26.514Z,38.70
2023-05-17T12:11:53.503Z,38.97
2023-05-17T12:14:23.206Z,39.21
2023-05-17T12:16:54.094Z,39.34
2023-05-17T12:19:22.290Z,39.53
2023-05-17T12:21:50.005Z,39.29
2023-05-17T12:24:17.055Z,37.87
2023-05-17T12:26:45.146Z,37.43
2023-05-17T12:29:12.234Z,38.17
2023-05-17T12:31:44.165Z,38.70
2023-05-17T12:34:12.879Z,38.99
2023-05-17T12:36:40.581Z,38.90
2023-05-17T12:39:09.942Z,37.94
2023-05-17T12:41:37.266Z,37.72
2023-05-17T12:44:14.609Z,37.97
2023-05-17T12:46:42.350Z,38.56
2023-05-17T12:49:09.426Z,38.68
2023-05-17T12:51:46.208Z,38.96
2023-05-17T12:54:16.309Z,38.98
2023-05-17T12:56:46.618Z,38.51
2023-05-17T12:59:17.316Z,38.70
2023-05-17T13:01:45.918Z,39.19
2023-05-17T13:04:13.501Z,39.78
2023-05-17T13:06:43.598Z,39.59
2023-05-17T13:09:10.507Z,38.91
2023-05-17T13:11:41.328Z,39.06
2023-05-17T13:14:09.079Z,39.07
2023-05-17T13:16:39.602Z,39.12
2023-05-17T13:19:14.548Z,39.43
2023-05-17T13:21:41.555Z,39.52
2023-05-17T13:24:09.511Z,39.38
2023-05-17T13:26:36.330Z,39.16
2023-05-17T13:29:03.310Z,39.01
2023-05-17T13:31:30.090Z,38.68
2023-05-17T13:33:57.119Z,38.66
2023-05-17T13:36:24.227Z,38.50
2023-05-17T13:38:51.160Z,38.91
2023-05-17T13:41:18.054Z,39.31
2023-05-17T13:43:44.906Z,39.01
2023-05-17T13:46:11.779Z,38.76
2023-05-17T13:48:40.463Z,38.91
2023-05-17T13:51:10.129Z,38.66
2023-05-17T13:53:38.816Z,38.54
2023-05-17T13:56:06.105Z,38.53
2023-05-17T13:58:33.506Z,38.58
2023-05-17T14:01:00.756Z,38.37
2023-05-17T14:03:27.948Z,38.32
2023-05-17T14:05:54.938Z,38.46
2023-05-17T14:08:21.806Z,38.10
2023-05-17T14:10:48.658Z,37.82
2023-05-17T14:13:15.544Z,37.82
2023-05-17T14:15:42.343Z,37.97
2023-05-17T14:18:09.798Z,37.88
2023-05-17T14:20:36.653Z,38.04
2023-05-17T14:23:03.576Z,38.28
2023-05-17T14:25:30.441Z,37.84
2023-05-17T14:27:57.231Z,37.73
2023-05-17T14:30:24.168Z,37.95
2023-05-17T14:32:50.993Z,38.11
2023-05-17T14:35:17.825Z,38.24
2023-05-17T14:37:44.683Z,37.94
2023-05-17T14:40:15.067Z,38.26
2023-05-17T14:42:54.776Z,38.34
2023-05-17T14:45:25.068Z,38.18
2023-05-17T14:47:52.850Z,37.96
2023-05-17T14:50:19.732Z,37.85
2023-05-17T14:52:46.654Z,37.75
2023-05-17T14:55:16.404Z,37.70
2023-05-17T14:57:43.860Z,37.76
2023-05-17T15:00:11.500Z,38.08
2023-05-17T15:02:38.455Z,38.12
2023-05-17T15:05:06.287Z,38.17
2023-05-17T15:07:34.723Z,37.99
2023-05-17T15:10:04.329Z,37.60
2023-05-17T15:12:32.275Z,37.45
2023-05-17T15:14:59.119Z,37.57
2023-05-17T15:17:26.038Z,37.64
2023-05-17T15:19:54.040Z,37.92
2023-05-17T15:22:21.001Z,37.80
2023-05-17T15:24:47.828Z,37.64
2023-05-17T15:27:17.217Z,37.39
2023-05-17T15:29:44.225Z,36.96
2023-05-17T15:32:11.323Z,37.03
2023-05-17T15:34:38.134Z,36.78
2023-05-17T15:37:04.924Z,36.94
2023-05-17T15:39:32.123Z,37.00
2023-05-17T15:41:58.963Z,37.33
2023-05-17T15:44:25.837Z,37.05
2023-05-17T15:46:52.808Z,36.92
2023-05-17T15:49:19.737Z,37.09
2023-05-17T15:51:47.171Z,37.23
2023-05-17T15:54:17.283Z,37.25
2023-05-17T15:56:44.078Z,37.02
2023-05-17T15:59:10.894Z,36.72
2023-05-17T16:01:37.738Z,37.13
2023-05-17T16:04:04.723Z,37.11
2023-05-17T16:06:36.026Z,37.24
2023-05-17T16:09:03.135Z,37.29
2023-05-17T16:11:30.068Z,37.61
2023-05-17T16:13:57.296Z,37.35
2023-05-17T16:16:24.085Z,37.33
2023-05-17T16:18:51.146Z,37.19
2023-05-17T16:21:21.123Z,36.91
2023-05-17T16:23:48.026Z,37.04
2023-05-17T16:26:16.018Z,37.43
2023-05-17T16:28:42.880Z,37.09
2023-05-17T16:31:10.142Z,36.91
2023-05-17T16:33:37.161Z,37.29
2023-05-17T16:36:05.071Z,36.85
2023-05-17T16:38:31.897Z,35.91
2023-05-17T16:41:03.413Z,35.42
2023-05-17T16:43:30.961Z,35.84
2023-05-17T16:45:57.792Z,35.56
2023-05-17T16:48:24.733Z,35.10
2023-05-17T16:50:52.211Z,35.15
2023-05-17T16:53:18.965Z,34.95
2023-05-17T16:55:45.800Z,35.27
2023-05-17T16:58:13.191Z,35.28
2023-05-17T17:00:40.166Z,34.81
2023-05-17T17:03:09.478Z,35.01
2023-05-17T17:05:36.857Z,34.94
2023-05-17T17:08:03.699Z,34.85
2023-05-17T17:11:26.353Z,32.26
2023-05-17T17:13:53.627Z,34.04
2023-05-17T17:16:21.230Z,34.07
2023-05-17T17:18:49.733Z,34.12
2023-05-17T17:21:17.111Z,34.11
2023-05-17T17:23:44.549Z,34.09
2023-05-17T17:26:11.626Z,33.71
2023-05-17T17:28:38.624Z,33.79
2023-05-17T17:31:06.282Z,33.69
2023-05-17T17:33:33.294Z,33.89
2023-05-17T17:36:01.657Z,33.74
2023-05-17T17:38:28.520Z,33.70
2023-05-17T17:40:55.588Z,33.82
2023-05-17T17:43:22.472Z,33.75
2023-05-17T17:45:49.258Z,33.34
2023-05-17T17:48:18.287Z,33.65
2023-05-17T17:50:45.157Z,33.66
2023-05-17T17:53:11.953Z,33.35
2023-05-17T17:55:38.840Z,33.22
2023-05-17T17:58:05.611Z,33.21
2023-05-17T18:00:32.518Z,32.95
2023-05-17T18:02:59.509Z,33.14
2023-05-17T18:05:26.552Z,33.21
2023-05-17T18:07:53.315Z,33.02
2023-05-17T18:10:20.453Z,33.07
2023-05-17T18:12:47.919Z,33.18
2023-05-17T18:15:15.934Z,33.26
2023-05-17T18:17:42.821Z,33.18
2023-05-17T18:20:09.790Z,32.75
2023-05-17T18:22:36.577Z,32.70
2023-05-17T18:25:03.553Z,32.66
2023-05-17T18:27:31.436Z,32.56
2023-05-17T18:29:58.309Z,32.31
2023-05-17T18:32:25.475Z,32.18
2023-05-17T18:34:55.072Z,32.59
2023-05-17T18:37:21.987Z,32.42
2023-05-17T18:39:48.885Z,32.19
2023-05-17T18:42:17.080Z,32.36
2023-05-17T18:44:43.891Z,32.31
2023-05-17T18:47:12.103Z,32.57
2023-05-17T18:49:44.144Z,32.55
2023-05-17T18:52:12.090Z,32.41
2023-05-17T18:54:39.000Z,32.77
2023-05-17T18:57:05.996Z,32.83
2023-05-17T18:59:33.062Z,32.97
2023-05-17T19:02:00.584Z,32.97
2023-05-17T19:04:28.603Z,32.64
2023-05-17T19:06:56.721Z,32.64
2023-05-17T19:09:23.594Z,32.58
2023-05-17T19:11:50.511Z,32.86
2023-05-17T19:14:18.230Z,32.85
2023-05-17T19:16:45.539Z,32.54
2023-05-17T19:19:12.419Z,32.73
2023-05-17T19:21:39.548Z,32.48
2023-05-17T19:24:06.667Z,32.55
2023-05-17T19:26:33.587Z,32.59
2023-05-17T19:29:00.592Z,32.28
2023-05-17T19:31:27.719Z,32.06
2023-05-17T19:33:54.591Z,31.76
2023-05-17T19:36:21.482Z,32.13
2023-05-17T19:38:51.189Z,32.19
2023-05-17T19:41:21.421Z,32.11
2023-05-17T19:43:48.245Z,32.03
2023-05-17T19:46:15.074Z,31.68
2023-05-17T19:48:41.962Z,31.72
2023-05-17T19:51:08.947Z,31.82
2023-05-17T19:53:51.021Z,31.69
2023-05-17T19:56:21.713Z,31.56
2023-05-17T19:58:48.564Z,31.24
2023-05-17T20:01:15.483Z,31.01
2023-05-17T20:03:42.546Z,31.52
2023-05-17T20:06:14.920Z,31.75
2023-05-17T20:08:42.500Z,31.65
2023-05-17T20:11:09.346Z,31.27
2023-05-17T20:13:40.070Z,30.97
2023-05-17T20:16:12.692Z,31.00
2023-05-17T20:18:42.677Z,30.53
2023-05-17T20:21:11.273Z,30.42
2023-05-17T20:23:38.136Z,30.08
2023-05-17T20:26:05.014Z,30.12
2023-05-17T20:28:31.758Z,30.09
2023-05-17T20:30:58.755Z,30.36
2023-05-17T20:33:26.797Z,30.62
2023-05-17T20:35:53.872Z,30.29
2023-05-17T20:38:22.183Z,30.03
2023-05-17T20:40:51.643Z,30.77
2023-05-17T20:43:19.170Z,30.63
2023-05-17T20:45:46.132Z,30.56
2023-05-17T20:48:13.026Z,30.95
2023-05-17T20:50:41.436Z,31.39
2023-05-17T20:53:10.402Z,31.46
2023-05-17T20:55:37.243Z,31.61
2023-05-17T20:58:04.129Z,31.69
2023-05-17T21:00:31.886Z,31.39
2023-05-17T21:02:59.007Z,31.41
2023-05-17T21:05:25.959Z,31.04
2023-05-17T21:07:52.694Z,30.77
2023-05-17T21:10:19.457Z,30.66
2023-05-17T21:12:46.202Z,30.67
2023-05-17T21:15:18.537Z,30.80
2023-05-17T21:17:45.525Z,30.15
2023-05-17T21:20:13.504Z,29.87
2023-05-17T21:22:40.442Z,29.99
2023-05-17T21:25:08.227Z,29.90
2023-05-17T21:27:35.125Z,29.69
2023-05-17T21:30:01.863Z,29.26
2023-05-17T21:32:28.631Z,29.45
2023-05-17T21:34:55.417Z,29.63
2023-05-17T21:37:22.228Z,29.34
2023-05-17T21:39:48.974Z,29.09
2023-05-17T21:42:15.770Z,29.02
2023-05-17T21:44:42.547Z,29.17
2023-05-17T21:47:09.410Z,29.18
2023-05-17T21:49:36.236Z,29.30
2023-05-17T21:52:03.174Z,29.23
2023-05-17T21:54:30.118Z,28.87
2023-05-17T21:56:56.923Z,28.89
2023-05-17T21:59:25.228Z,28.52
2023-05-17T22:01:54.990Z,28.66
2023-05-17T22:04:22.015Z,28.66
2023-05-17T22:06:48.810Z,28.62
2023-05-17T22:09:15.640Z,28.08
2023-05-17T22:11:42.508Z,27.74
2023-05-17T22:14:09.369Z,27.77
2023-05-17T22:16:38.981Z,27.40
2023-05-17T22:19:05.955Z,27.47
2023-05-17T22:21:33.071Z,27.08
2023-05-17T22:23:59.881Z,27.10
2023-05-17T22:26:27.817Z,27.13
2023-05-17T22:28:55.753Z,27.08
2023-05-17T22:31:23.071Z,26.74
2023-05-17T22:33:52.358Z,26.78
2023-05-17T22:36:19.699Z,26.74
2023-05-17T22:38:46.770Z,27.45
2023-05-17T22:41:13.821Z,27.33
2023-05-17T22:43:40.637Z,26.69
2023-05-17T22:46:07.499Z,26.68
2023-05-17T22:48:37.499Z,26.36
2023-05-17T22:51:04.897Z,26.39
2023-05-17T22:53:31.941Z,26.64
2023-05-17T22:55:58.925Z,26.51
2023-05-17T22:58:26.124Z,26.39
2023-05-17T23:00:53.241Z,26.25
2023-05-17T23:03:20.473Z,26.39
2023-05-17T23:05:47.528Z,26.24
2023-05-17T23:08:15.671Z,26.37
2023-05-17T23:10:45.785Z,25.91
2023-05-17T23:13:12.988Z,25.95
2023-05-17T23:15:40.940Z,26.20
2023-05-17T23:18:08.153Z,26.25
2023-05-17T23:20:35.209Z,26.19
2023-05-17T23:23:02.261Z,25.73
2023-05-17T23:25:29.688Z,25.66
2023-05-17T23:27:58.733Z,25.79
2023-05-17T23:30:26.473Z,26.00
2023-05-17T23:32:55.290Z,25.81
2023-05-17T23:35:25.969Z,26.17
2023-05-17T23:37:52.787Z,25.86
2023-05-17T23:40:19.885Z,26.03
2023-05-17T23:42:46.622Z,26.18
2023-05-17T23:45:13.486Z,26.01
2023-05-17T23:47:41.071Z,25.82
2023-05-17T23:50:12.145Z,25.99
2023-05-17T23:52:39.595Z,25.76
2023-05-17T23:55:07.401Z,25.69
2023-05-17T23:57:35.304Z,25.85
